sensor_id;sensor_type;location;lat;lon;timestamp;P1;durP1;ratioP1;P2;durP2;ratioP2
22030;SDS011;11179;52.106;21.024;2023-03-30T00:02:20;30.70;;;13.77;;
22030;SDS011;11179;52.106;21.024;2023-03-30T00:04:47;33.13;;;13.03;;
22030;SDS011;11179;52.106;21.024;2023-03-30T00:07:14;32.43;;;13.13;;
22030;SDS011;11179;52.106;21.024;2023-03-30T00:09:39;34.63;;;13.80;;
22030;SDS011;11179;52.106;21.024;2023-03-30T00:12:08;26.57;;;12.70;;
22030;SDS011;11179;52.106;21.024;2023-03-30T00:14:34;33.55;;;13.80;;
22030;SDS011;11179;52.106;21.024;2023-03-30T00:17:03;36.00;;;14.63;;
22030;SDS011;11179;52.106;21.024;2023-03-30T00:19:29;31.20;;;13.60;;
22030;SDS011;11179;52.106;21.024;2023-03-30T00:21:54;32.80;;;13.00;;
22030;SDS011;11179;52.106;21.024;2023-03-30T00:24:20;37.80;;;14.57;;
22030;SDS011;11179;52.106;21.024;2023-03-30T00:26:45;30.50;;;13.90;;
22030;SDS011;11179;52.106;21.024;2023-03-30T00:29:11;28.27;;;12.93;;
22030;SDS011;11179;52.106;21.024;2023-03-30T00:31:36;34.53;;;12.60;;
22030;SDS011;11179;52.106;21.024;2023-03-30T00:34:01;28.47;;;13.00;;
22030;SDS011;11179;52.106;21.024;2023-03-30T00:36:27;28.20;;;12.07;;
22030;SDS011;11179;52.106;21.024;2023-03-30T00:38:52;32.97;;;13.00;;
22030;SDS011;11179;52.106;21.024;2023-03-30T00:41:18;28.27;;;12.17;;
22030;SDS011;11179;52.106;21.024;2023-03-30T00:43:53;29.73;;;12.77;;
22030;SDS011;11179;52.106;21.024;2023-03-30T00:46:20;27.83;;;12.30;;
22030;SDS011;11179;52.106;21.024;2023-03-30T00:48:46;26.13;;;12.63;;
22030;SDS011;11179;52.106;21.024;2023-03-30T00:51:12;28.53;;;13.07;;
22030;SDS011;11179;52.106;21.024;2023-03-30T00:53:40;29.13;;;14.03;;
22030;SDS011;11179;52.106;21.024;2023-03-30T00:56:08;25.90;;;11.23;;
22030;SDS011;11179;52.106;21.024;2023-03-30T00:58:37;27.30;;;12.37;;
22030;SDS011;11179;52.106;21.024;2023-03-30T01:01:05;32.37;;;12.20;;
22030;SDS011;11179;52.106;21.024;2023-03-30T01:03:38;29.47;;;12.40;;
22030;SDS011;11179;52.106;21.024;2023-03-30T01:06:10;31.97;;;12.33;;
22030;SDS011;11179;52.106;21.024;2023-03-30T01:08:36;31.03;;;12.40;;
22030;SDS011;11179;52.106;21.024;2023-03-30T01:11:03;28.70;;;12.10;;
22030;SDS011;11179;52.106;21.024;2023-03-30T01:13:34;32.13;;;12.80;;
22030;SDS011;11179;52.106;21.024;2023-03-30T01:25:05;24.50;;;11.03;;
22030;SDS011;11179;52.106;21.024;2023-03-30T01:30:43;27.60;;;11.50;;
22030;SDS011;11179;52.106;21.024;2023-03-30T01:52:15;23.10;;;10.30;;
22030;SDS011;11179;52.106;21.024;2023-03-30T01:55:18;21.67;;;9.90;;
22030;SDS011;11179;52.106;21.024;2023-03-30T01:57:49;25.30;;;10.37;;
22030;SDS011;11179;52.106;21.024;2023-03-30T02:00:20;26.75;;;11.10;;
22030;SDS011;11179;52.106;21.024;2023-03-30T02:02:48;25.03;;;10.90;;
22030;SDS011;11179;52.106;21.024;2023-03-30T02:05:21;27.80;;;10.87;;
22030;SDS011;11179;52.106;21.024;2023-03-30T02:07:58;20.07;;;10.00;;
22030;SDS011;11179;52.106;21.024;2023-03-30T02:10:27;22.17;;;10.10;;
22030;SDS011;11179;52.106;21.024;2023-03-30T02:12:57;21.50;;;9.77;;
22030;SDS011;11179;52.106;21.024;2023-03-30T02:15:24;20.90;;;9.40;;
22030;SDS011;11179;52.106;21.024;2023-03-30T02:17:54;25.70;;;11.27;;
22030;SDS011;11179;52.106;21.024;2023-03-30T02:20:19;24.63;;;9.93;;
22030;SDS011;11179;52.106;21.024;2023-03-30T02:22:45;29.20;;;10.27;;
22030;SDS011;11179;52.106;21.024;2023-03-30T02:25:11;26.03;;;10.47;;
22030;SDS011;11179;52.106;21.024;2023-03-30T02:27:37;27.93;;;12.47;;
22030;SDS011;11179;52.106;21.024;2023-03-30T02:30:06;28.17;;;10.53;;
22030;SDS011;11179;52.106;21.024;2023-03-30T02:32:35;24.97;;;10.60;;
22030;SDS011;11179;52.106;21.024;2023-03-30T02:43:44;30.80;;;10.90;;
22030;SDS011;11179;52.106;21.024;2023-03-30T02:51:41;27.57;;;10.77;;
22030;SDS011;11179;52.106;21.024;2023-03-30T02:54:25;23.57;;;10.20;;
22030;SDS011;11179;52.106;21.024;2023-03-30T02:57:11;26.90;;;11.10;;
22030;SDS011;11179;52.106;21.024;2023-03-30T02:59:48;31.10;;;11.03;;
22030;SDS011;11179;52.106;21.024;2023-03-30T03:02:26;23.60;;;10.70;;
22030;SDS011;11179;52.106;21.024;2023-03-30T03:04:55;30.80;;;12.30;;
22030;SDS011;11179;52.106;21.024;2023-03-30T03:07:21;23.60;;;11.00;;
22030;SDS011;11179;52.106;21.024;2023-03-30T03:09:49;24.13;;;11.00;;
22030;SDS011;11179;52.106;21.024;2023-03-30T03:12:14;30.13;;;11.93;;
22030;SDS011;11179;52.106;21.024;2023-03-30T03:14:40;29.83;;;11.93;;
22030;SDS011;11179;52.106;21.024;2023-03-30T03:17:07;30.40;;;11.83;;
22030;SDS011;11179;52.106;21.024;2023-03-30T03:19:32;27.13;;;10.43;;
22030;SDS011;11179;52.106;21.024;2023-03-30T03:21:57;27.17;;;10.97;;
22030;SDS011;11179;52.106;21.024;2023-03-30T03:24:23;27.90;;;10.27;;
22030;SDS011;11179;52.106;21.024;2023-03-30T03:26:48;22.90;;;10.50;;
22030;SDS011;11179;52.106;21.024;2023-03-30T03:29:14;24.60;;;11.10;;
22030;SDS011;11179;52.106;21.024;2023-03-30T03:31:39;34.90;;;13.73;;
22030;SDS011;11179;52.106;21.024;2023-03-30T03:34:05;22.80;;;10.40;;
22030;SDS011;11179;52.106;21.024;2023-03-30T03:36:31;26.53;;;11.97;;
22030;SDS011;11179;52.106;21.024;2023-03-30T03:38:56;29.60;;;11.37;;
22030;SDS011;11179;52.106;21.024;2023-03-30T03:41:21;24.90;;;10.60;;
22030;SDS011;11179;52.106;21.024;2023-03-30T03:43:47;28.27;;;11.30;;
22030;SDS011;11179;52.106;21.024;2023-03-30T03:46:12;27.67;;;12.63;;
22030;SDS011;11179;52.106;21.024;2023-03-30T03:48:38;25.03;;;11.00;;
22030;SDS011;11179;52.106;21.024;2023-03-30T03:51:04;28.83;;;10.90;;
22030;SDS011;11179;52.106;21.024;2023-03-30T03:53:30;37.80;;;11.80;;
22030;SDS011;11179;52.106;21.024;2023-03-30T03:55:55;27.37;;;11.90;;
22030;SDS011;11179;52.106;21.024;2023-03-30T03:58:21;34.23;;;12.30;;
22030;SDS011;11179;52.106;21.024;2023-03-30T04:00:47;33.87;;;12.23;;
22030;SDS011;11179;52.106;21.024;2023-03-30T04:03:13;28.23;;;11.93;;
22030;SDS011;11179;52.106;21.024;2023-03-30T04:05:38;27.13;;;11.67;;
22030;SDS011;11179;52.106;21.024;2023-03-30T04:08:04;27.67;;;12.27;;
22030;SDS011;11179;52.106;21.024;2023-03-30T04:10:34;26.90;;;10.30;;
22030;SDS011;11179;52.106;21.024;2023-03-30T04:13:00;28.33;;;12.30;;
22030;SDS011;11179;52.106;21.024;2023-03-30T04:15:25;34.30;;;12.80;;
22030;SDS011;11179;52.106;21.024;2023-03-30T04:17:51;25.87;;;12.10;;
22030;SDS011;11179;52.106;21.024;2023-03-30T04:20:22;30.20;;;12.37;;
22030;SDS011;11179;52.106;21.024;2023-03-30T04:22:48;26.03;;;11.90;;
22030;SDS011;11179;52.106;21.024;2023-03-30T04:25:14;27.43;;;12.70;;
22030;SDS011;11179;52.106;21.024;2023-03-30T04:27:40;24.90;;;11.63;;
22030;SDS011;11179;52.106;21.024;2023-03-30T04:30:09;29.17;;;11.93;;
22030;SDS011;11179;52.106;21.024;2023-03-30T04:32:36;26.27;;;13.07;;
22030;SDS011;11179;52.106;21.024;2023-03-30T04:35:06;29.60;;;12.30;;
22030;SDS011;11179;52.106;21.024;2023-03-30T04:37:33;30.10;;;12.03;;
22030;SDS011;11179;52.106;21.024;2023-03-30T04:39:59;26.77;;;11.70;;
22030;SDS011;11179;52.106;21.024;2023-03-30T04:42:26;26.83;;;13.87;;
22030;SDS011;11179;52.106;21.024;2023-03-30T04:44:58;31.43;;;13.40;;
22030;SDS011;11179;52.106;21.024;2023-03-30T04:47:26;32.20;;;11.97;;
22030;SDS011;11179;52.106;21.024;2023-03-30T04:49:53;29.40;;;13.07;;
22030;SDS011;11179;52.106;21.024;2023-03-30T04:52:18;33.53;;;12.70;;
22030;SDS011;11179;52.106;21.024;2023-03-30T04:54:44;28.03;;;13.00;;
22030;SDS011;11179;52.106;21.024;2023-03-30T04:57:09;26.97;;;12.10;;
22030;SDS011;11179;52.106;21.024;2023-03-30T04:59:34;25.60;;;12.50;;
22030;SDS011;11179;52.106;21.024;2023-03-30T05:02:00;29.33;;;13.00;;
22030;SDS011;11179;52.106;21.024;2023-03-30T05:04:27;29.03;;;12.83;;
22030;SDS011;11179;52.106;21.024;2023-03-30T05:06:52;27.70;;;13.07;;
22030;SDS011;11179;52.106;21.024;2023-03-30T05:09:18;34.67;;;14.07;;
22030;SDS011;11179;52.106;21.024;2023-03-30T05:11:43;35.37;;;13.03;;
22030;SDS011;11179;52.106;21.024;2023-03-30T05:14:08;25.10;;;12.90;;
22030;SDS011;11179;52.106;21.024;2023-03-30T05:16:33;35.93;;;14.47;;
22030;SDS011;11179;52.106;21.024;2023-03-30T05:18:59;37.90;;;12.93;;
22030;SDS011;11179;52.106;21.024;2023-03-30T05:21:24;33.97;;;14.30;;
22030;SDS011;11179;52.106;21.024;2023-03-30T05:23:50;28.43;;;12.60;;
22030;SDS011;11179;52.106;21.024;2023-03-30T05:26:15;25.70;;;12.27;;
22030;SDS011;11179;52.106;21.024;2023-03-30T05:28:40;29.53;;;13.17;;
22030;SDS011;11179;52.106;21.024;2023-03-30T05:31:07;38.30;;;14.80;;
22030;SDS011;11179;52.106;21.024;2023-03-30T05:33:32;25.90;;;12.83;;
22030;SDS011;11179;52.106;21.024;2023-03-30T05:35:58;36.33;;;14.27;;
22030;SDS011;11179;52.106;21.024;2023-03-30T05:38:24;27.40;;;13.17;;
22030;SDS011;11179;52.106;21.024;2023-03-30T05:40:52;32.67;;;13.57;;
22030;SDS011;11179;52.106;21.024;2023-03-30T05:43:18;33.60;;;12.40;;
22030;SDS011;11179;52.106;21.024;2023-03-30T05:45:45;32.27;;;13.40;;
22030;SDS011;11179;52.106;21.024;2023-03-30T05:48:10;34.60;;;13.67;;
22030;SDS011;11179;52.106;21.024;2023-03-30T05:50:36;29.53;;;13.93;;
22030;SDS011;11179;52.106;21.024;2023-03-30T05:53:01;30.23;;;13.70;;
22030;SDS011;11179;52.106;21.024;2023-03-30T05:55:27;27.83;;;12.80;;
22030;SDS011;11179;52.106;21.024;2023-03-30T05:57:52;29.83;;;13.10;;
22030;SDS011;11179;52.106;21.024;2023-03-30T06:00:18;31.03;;;13.70;;
22030;SDS011;11179;52.106;21.024;2023-03-30T06:02:46;33.57;;;13.33;;
22030;SDS011;11179;52.106;21.024;2023-03-30T06:05:11;26.03;;;12.60;;
22030;SDS011;11179;52.106;21.024;2023-03-30T06:07:37;31.30;;;12.23;;
22030;SDS011;11179;52.106;21.024;2023-03-30T06:10:03;31.20;;;14.20;;
22030;SDS011;11179;52.106;21.024;2023-03-30T06:12:30;27.27;;;12.47;;
22030;SDS011;11179;52.106;21.024;2023-03-30T06:14:55;24.53;;;12.97;;
22030;SDS011;11179;52.106;21.024;2023-03-30T06:17:21;31.97;;;13.60;;
22030;SDS011;11179;52.106;21.024;2023-03-30T06:19:46;30.50;;;12.87;;
22030;SDS011;11179;52.106;21.024;2023-03-30T06:22:12;29.77;;;13.80;;
22030;SDS011;11179;52.106;21.024;2023-03-30T06:24:37;30.07;;;13.30;;
22030;SDS011;11179;52.106;21.024;2023-03-30T06:27:02;34.67;;;14.30;;
22030;SDS011;11179;52.106;21.024;2023-03-30T06:29:28;29.13;;;13.83;;
22030;SDS011;11179;52.106;21.024;2023-03-30T06:31:54;29.70;;;13.13;;
22030;SDS011;11179;52.106;21.024;2023-03-30T06:34:20;29.17;;;12.47;;
22030;SDS011;11179;52.106;21.024;2023-03-30T06:36:45;33.67;;;13.77;;
22030;SDS011;11179;52.106;21.024;2023-03-30T06:39:11;28.20;;;12.80;;
22030;SDS011;11179;52.106;21.024;2023-03-30T06:41:38;34.30;;;12.70;;
22030;SDS011;11179;52.106;21.024;2023-03-30T06:44:03;28.40;;;13.30;;
22030;SDS011;11179;52.106;21.024;2023-03-30T06:46:28;30.33;;;12.63;;
22030;SDS011;11179;52.106;21.024;2023-03-30T06:48:54;34.93;;;13.30;;
22030;SDS011;11179;52.106;21.024;2023-03-30T06:51:19;29.00;;;12.23;;
22030;SDS011;11179;52.106;21.024;2023-03-30T06:53:45;26.33;;;11.30;;
22030;SDS011;11179;52.106;21.024;2023-03-30T06:56:10;36.70;;;12.97;;
22030;SDS011;11179;52.106;21.024;2023-03-30T06:58:35;27.93;;;12.27;;
22030;SDS011;11179;52.106;21.024;2023-03-30T07:01:08;29.87;;;11.90;;
22030;SDS011;11179;52.106;21.024;2023-03-30T07:03:37;33.70;;;13.40;;
22030;SDS011;11179;52.106;21.024;2023-03-30T07:06:03;28.20;;;14.30;;
22030;SDS011;11179;52.106;21.024;2023-03-30T07:08:29;30.43;;;12.80;;
22030;SDS011;11179;52.106;21.024;2023-03-30T07:10:54;38.47;;;13.90;;
22030;SDS011;11179;52.106;21.024;2023-03-30T07:13:20;33.67;;;14.50;;
22030;SDS011;11179;52.106;21.024;2023-03-30T07:15:45;33.50;;;12.97;;
22030;SDS011;11179;52.106;21.024;2023-03-30T07:18:11;26.23;;;11.77;;
22030;SDS011;11179;52.106;21.024;2023-03-30T07:20:37;29.50;;;12.73;;
22030;SDS011;11179;52.106;21.024;2023-03-30T07:23:03;31.60;;;12.00;;
22030;SDS011;11179;52.106;21.024;2023-03-30T07:25:29;28.90;;;13.20;;
22030;SDS011;11179;52.106;21.024;2023-03-30T07:27:54;25.13;;;12.40;;
22030;SDS011;11179;52.106;21.024;2023-03-30T07:30:20;30.90;;;12.07;;
22030;SDS011;11179;52.106;21.024;2023-03-30T07:32:46;34.80;;;11.80;;
22030;SDS011;11179;52.106;21.024;2023-03-30T07:35:13;31.23;;;12.90;;
22030;SDS011;11179;52.106;21.024;2023-03-30T07:37:38;25.63;;;12.90;;
22030;SDS011;11179;52.106;21.024;2023-03-30T07:40:04;35.30;;;13.90;;
22030;SDS011;11179;52.106;21.024;2023-03-30T07:42:34;32.10;;;13.03;;
22030;SDS011;11179;52.106;21.024;2023-03-30T07:45:00;32.33;;;13.23;;
22030;SDS011;11179;52.106;21.024;2023-03-30T07:47:26;34.63;;;13.47;;
22030;SDS011;11179;52.106;21.024;2023-03-30T07:49:52;23.57;;;11.97;;
22030;SDS011;11179;52.106;21.024;2023-03-30T07:52:17;29.47;;;13.27;;
22030;SDS011;11179;52.106;21.024;2023-03-30T07:54:42;25.87;;;11.63;;
22030;SDS011;11179;52.106;21.024;2023-03-30T07:57:09;28.50;;;13.30;;
22030;SDS011;11179;52.106;21.024;2023-03-30T07:59:35;24.17;;;11.90;;
22030;SDS011;11179;52.106;21.024;2023-03-30T08:02:00;25.13;;;12.30;;
22030;SDS011;11179;52.106;21.024;2023-03-30T08:04:26;28.07;;;13.10;;
22030;SDS011;11179;52.106;21.024;2023-03-30T08:06:51;28.37;;;12.73;;
22030;SDS011;11179;52.106;21.024;2023-03-30T08:09:17;28.27;;;11.90;;
22030;SDS011;11179;52.106;21.024;2023-03-30T08:11:43;23.87;;;11.73;;
22030;SDS011;11179;52.106;21.024;2023-03-30T08:14:09;22.73;;;12.00;;
22030;SDS011;11179;52.106;21.024;2023-03-30T08:16:34;26.10;;;11.00;;
22030;SDS011;11179;52.106;21.024;2023-03-30T08:19:00;28.20;;;12.07;;
22030;SDS011;11179;52.106;21.024;2023-03-30T08:21:25;28.37;;;11.53;;
22030;SDS011;11179;52.106;21.024;2023-03-30T08:23:54;28.33;;;13.07;;
22030;SDS011;11179;52.106;21.024;2023-03-30T08:26:26;22.43;;;11.53;;
22030;SDS011;11179;52.106;21.024;2023-03-30T08:28:55;31.40;;;11.87;;
22030;SDS011;11179;52.106;21.024;2023-03-30T08:31:20;23.83;;;11.30;;
22030;SDS011;11179;52.106;21.024;2023-03-30T08:33:46;27.90;;;11.97;;
22030;SDS011;11179;52.106;21.024;2023-03-30T08:36:12;23.10;;;11.00;;
22030;SDS011;11179;52.106;21.024;2023-03-30T08:38:38;26.10;;;10.57;;
22030;SDS011;11179;52.106;21.024;2023-03-30T08:46:25;27.90;;;12.90;;
22030;SDS011;11179;52.106;21.024;2023-03-30T08:48:52;23.17;;;10.47;;
22030;SDS011;11179;52.106;21.024;2023-03-30T08:53:54;24.90;;;11.70;;
22030;SDS011;11179;52.106;21.024;2023-03-30T08:56:30;30.27;;;11.80;;
22030;SDS011;11179;52.106;21.024;2023-03-30T09:01:50;27.17;;;12.70;;
22030;SDS011;11179;52.106;21.024;2023-03-30T09:09:40;23.33;;;12.90;;
22030;SDS011;11179;52.106;21.024;2023-03-30T09:12:19;24.63;;;12.90;;
22030;SDS011;11179;52.106;21.024;2023-03-30T09:14:57;22.73;;;12.10;;
22030;SDS011;11179;52.106;21.024;2023-03-30T09:17:58;31.63;;;13.00;;
22030;SDS011;11179;52.106;21.024;2023-03-30T09:20:31;34.70;;;14.43;;
22030;SDS011;11179;52.106;21.024;2023-03-30T09:23:00;28.60;;;12.23;;
22030;SDS011;11179;52.106;21.024;2023-03-30T09:31:04;29.20;;;12.57;;
22030;SDS011;11179;52.106;21.024;2023-03-30T09:36:39;22.53;;;10.77;;
22030;SDS011;11179;52.106;21.024;2023-03-30T09:39:28;21.20;;;10.53;;
22030;SDS011;11179;52.106;21.024;2023-03-30T09:50:04;30.13;;;10.90;;
22030;SDS011;11179;52.106;21.024;2023-03-30T09:52:35;22.00;;;9.83;;
22030;SDS011;11179;52.106;21.024;2023-03-30T09:57:45;24.00;;;10.83;;
22030;SDS011;11179;52.106;21.024;2023-03-30T10:00:26;18.70;;;9.93;;
22030;SDS011;11179;52.106;21.024;2023-03-30T10:03:00;26.30;;;10.67;;
22030;SDS011;11179;52.106;21.024;2023-03-30T10:05:28;21.47;;;10.33;;
22030;SDS011;11179;52.106;21.024;2023-03-30T10:07:56;20.00;;;10.63;;
22030;SDS011;11179;52.106;21.024;2023-03-30T10:10:29;23.33;;;10.77;;
22030;SDS011;11179;52.106;21.024;2023-03-30T10:13:02;20.67;;;10.87;;
22030;SDS011;11179;52.106;21.024;2023-03-30T10:15:31;24.33;;;10.60;;
22030;SDS011;11179;52.106;21.024;2023-03-30T10:17:59;21.83;;;10.40;;
22030;SDS011;11179;52.106;21.024;2023-03-30T10:20:49;18.10;;;10.17;;
22030;SDS011;11179;52.106;21.024;2023-03-30T10:23:17;25.47;;;10.67;;
22030;SDS011;11179;52.106;21.024;2023-03-30T10:25:46;22.33;;;10.30;;
22030;SDS011;11179;52.106;21.024;2023-03-30T10:28:32;22.63;;;9.43;;
22030;SDS011;11179;52.106;21.024;2023-03-30T10:30:59;25.77;;;10.50;;
22030;SDS011;11179;52.106;21.024;2023-03-30T10:33:27;19.30;;;9.77;;
22030;SDS011;11179;52.106;21.024;2023-03-30T10:35:54;21.17;;;9.73;;
22030;SDS011;11179;52.106;21.024;2023-03-30T10:38:24;20.43;;;10.43;;
22030;SDS011;11179;52.106;21.024;2023-03-30T10:40:58;17.30;;;8.80;;
22030;SDS011;11179;52.106;21.024;2023-03-30T10:43:28;21.47;;;9.50;;
22030;SDS011;11179;52.106;21.024;2023-03-30T10:45:56;21.80;;;10.30;;
22030;SDS011;11179;52.106;21.024;2023-03-30T10:49:32;19.00;;;10.00;;
22030;SDS011;11179;52.106;21.024;2023-03-30T10:51:41;23.63;;;10.10;;
22030;SDS011;11179;52.106;21.024;2023-03-30T10:54:34;18.77;;;10.57;;
22030;SDS011;11179;52.106;21.024;2023-03-30T10:57:05;22.23;;;9.27;;
22030;SDS011;11179;52.106;21.024;2023-03-30T10:59:41;20.67;;;9.73;;
22030;SDS011;11179;52.106;21.024;2023-03-30T11:02:18;22.73;;;8.70;;
22030;SDS011;11179;52.106;21.024;2023-03-30T11:05:12;19.10;;;8.97;;
22030;SDS011;11179;52.106;21.024;2023-03-30T11:08:06;16.03;;;8.50;;
22030;SDS011;11179;52.106;21.024;2023-03-30T11:10:39;21.23;;;10.20;;
22030;SDS011;11179;52.106;21.024;2023-03-30T11:15:53;20.67;;;10.00;;
22030;SDS011;11179;52.106;21.024;2023-03-30T11:18:24;20.10;;;9.90;;
22030;SDS011;11179;52.106;21.024;2023-03-30T11:21:02;24.70;;;10.03;;
22030;SDS011;11179;52.106;21.024;2023-03-30T11:26:28;18.07;;;10.10;;
22030;SDS011;11179;52.106;21.024;2023-03-30T11:29:12;20.00;;;10.07;;
22030;SDS011;11179;52.106;21.024;2023-03-30T11:31:55;20.40;;;9.37;;
22030;SDS011;11179;52.106;21.024;2023-03-30T11:34:37;17.73;;;9.60;;
22030;SDS011;11179;52.106;21.024;2023-03-30T11:37:17;18.50;;;9.30;;
22030;SDS011;11179;52.106;21.024;2023-03-30T11:39:50;21.47;;;10.50;;
22030;SDS011;11179;52.106;21.024;2023-03-30T11:42:22;20.80;;;10.47;;
22030;SDS011;11179;52.106;21.024;2023-03-30T11:44:51;20.70;;;10.43;;
22030;SDS011;11179;52.106;21.024;2023-03-30T11:47:21;20.33;;;10.13;;
22030;SDS011;11179;52.106;21.024;2023-03-30T11:53:12;15.00;;;8.40;;
22030;SDS011;11179;52.106;21.024;2023-03-30T11:58:46;16.97;;;9.20;;
22030;SDS011;11179;52.106;21.024;2023-03-30T12:01:23;16.07;;;8.80;;
22030;SDS011;11179;52.106;21.024;2023-03-30T12:03:55;17.90;;;9.23;;
22030;SDS011;11179;52.106;21.024;2023-03-30T12:09:17;19.90;;;8.67;;
22030;SDS011;11179;52.106;21.024;2023-03-30T12:14:24;19.93;;;8.83;;
22030;SDS011;11179;52.106;21.024;2023-03-30T12:16:53;16.77;;;9.60;;
22030;SDS011;11179;52.106;21.024;2023-03-30T12:19:24;16.47;;;8.20;;
22030;SDS011;11179;52.106;21.024;2023-03-30T12:22:03;19.50;;;9.60;;
22030;SDS011;11179;52.106;21.024;2023-03-30T12:24:37;22.80;;;8.90;;
22030;SDS011;11179;52.106;21.024;2023-03-30T12:27:11;17.40;;;8.43;;
22030;SDS011;11179;52.106;21.024;2023-03-30T12:29:49;17.60;;;7.50;;
22030;SDS011;11179;52.106;21.024;2023-03-30T12:34:48;23.73;;;10.87;;
22030;SDS011;11179;52.106;21.024;2023-03-30T12:40:35;15.77;;;8.03;;
22030;SDS011;11179;52.106;21.024;2023-03-30T12:43:00;12.87;;;7.37;;
22030;SDS011;11179;52.106;21.024;2023-03-30T12:45:47;17.93;;;7.90;;
22030;SDS011;11179;52.106;21.024;2023-03-30T12:48:28;17.40;;;8.67;;
22030;SDS011;11179;52.106;21.024;2023-03-30T12:56:35;17.20;;;8.40;;
22030;SDS011;11179;52.106;21.024;2023-03-30T12:59:20;18.40;;;8.67;;
22030;SDS011;11179;52.106;21.024;2023-03-30T13:02:42;15.00;;;8.10;;
22030;SDS011;11179;52.106;21.024;2023-03-30T13:05:04;16.33;;;8.00;;
22030;SDS011;11179;52.106;21.024;2023-03-30T13:07:41;22.40;;;8.17;;
22030;SDS011;11179;52.106;21.024;2023-03-30T13:12:56;13.33;;;6.60;;
22030;SDS011;11179;52.106;21.024;2023-03-30T13:20:19;13.77;;;7.03;;
22030;SDS011;11179;52.106;21.024;2023-03-30T13:23:36;16.20;;;6.07;;
22030;SDS011;11179;52.106;21.024;2023-03-30T13:26:20;15.03;;;6.67;;
22030;SDS011;11179;52.106;21.024;2023-03-30T13:28:38;12.27;;;5.80;;
22030;SDS011;11179;52.106;21.024;2023-03-30T13:33:48;12.67;;;6.57;;
22030;SDS011;11179;52.106;21.024;2023-03-30T13:36:50;17.40;;;5.73;;
22030;SDS011;11179;52.106;21.024;2023-03-30T13:45:06;11.57;;;5.27;;
22030;SDS011;11179;52.106;21.024;2023-03-30T13:50:21;9.67;;;5.00;;
22030;SDS011;11179;52.106;21.024;2023-03-30T13:52:53;10.93;;;4.80;;
22030;SDS011;11179;52.106;21.024;2023-03-30T13:55:24;9.97;;;5.00;;
22030;SDS011;11179;52.106;21.024;2023-03-30T13:57:55;16.80;;;5.00;;
22030;SDS011;11179;52.106;21.024;2023-03-30T14:06:01;14.27;;;5.53;;
22030;SDS011;11179;52.106;21.024;2023-03-30T14:08:47;9.37;;;5.00;;
22030;SDS011;11179;52.106;21.024;2023-03-30T14:11:26;13.80;;;5.63;;
22030;SDS011;11179;52.106;21.024;2023-03-30T14:13:57;9.93;;;5.07;;
22030;SDS011;11179;52.106;21.024;2023-03-30T14:16:26;10.97;;;4.77;;
22030;SDS011;11179;52.106;21.024;2023-03-30T14:19:16;10.10;;;4.90;;
22030;SDS011;11179;52.106;21.024;2023-03-30T14:21:46;12.50;;;5.50;;
22030;SDS011;11179;52.106;21.024;2023-03-30T14:24:17;11.60;;;5.73;;
22030;SDS011;11179;52.106;21.024;2023-03-30T14:26:46;12.43;;;5.47;;
22030;SDS011;11179;52.106;21.024;2023-03-30T14:29:19;15.03;;;5.70;;
22030;SDS011;11179;52.106;21.024;2023-03-30T14:31:45;10.57;;;4.87;;
22030;SDS011;11179;52.106;21.024;2023-03-30T14:34:25;11.33;;;5.70;;
22030;SDS011;11179;52.106;21.024;2023-03-30T14:37:28;10.53;;;5.13;;
22030;SDS011;11179;52.106;21.024;2023-03-30T14:39:50;15.83;;;5.43;;
22030;SDS011;11179;52.106;21.024;2023-03-30T14:42:18;13.87;;;6.30;;
22030;SDS011;11179;52.106;21.024;2023-03-30T14:44:49;16.73;;;5.83;;
22030;SDS011;11179;52.106;21.024;2023-03-30T14:47:18;10.00;;;5.00;;
22030;SDS011;11179;52.106;21.024;2023-03-30T14:49:56;16.10;;;6.27;;
22030;SDS011;11179;52.106;21.024;2023-03-30T14:52:24;17.93;;;5.93;;
22030;SDS011;11179;52.106;21.024;2023-03-30T14:54:54;14.57;;;6.43;;
22030;SDS011;11179;52.106;21.024;2023-03-30T14:57:21;30.47;;;7.63;;
22030;SDS011;11179;52.106;21.024;2023-03-30T15:00:00;15.17;;;6.00;;
22030;SDS011;11179;52.106;21.024;2023-03-30T15:02:44;12.67;;;5.60;;
22030;SDS011;11179;52.106;21.024;2023-03-30T15:05:16;14.93;;;7.53;;
22030;SDS011;11179;52.106;21.024;2023-03-30T15:07:45;17.30;;;6.27;;
22030;SDS011;11179;52.106;21.024;2023-03-30T15:10:19;19.10;;;6.40;;
22030;SDS011;11179;52.106;21.024;2023-03-30T15:13:07;13.37;;;7.07;;
22030;SDS011;11179;52.106;21.024;2023-03-30T15:15:33;12.90;;;6.47;;
22030;SDS011;11179;52.106;21.024;2023-03-30T15:17:59;22.63;;;6.70;;
22030;SDS011;11179;52.106;21.024;2023-03-30T15:20:28;13.23;;;6.13;;
22030;SDS011;11179;52.106;21.024;2023-03-30T15:22:55;16.90;;;6.60;;
22030;SDS011;11179;52.106;21.024;2023-03-30T15:25:23;15.00;;;5.90;;
22030;SDS011;11179;52.106;21.024;2023-03-30T15:27:57;16.07;;;6.67;;
22030;SDS011;11179;52.106;21.024;2023-03-30T15:30:34;17.97;;;8.03;;
22030;SDS011;11179;52.106;21.024;2023-03-30T15:33:02;14.60;;;6.53;;
22030;SDS011;11179;52.106;21.024;2023-03-30T15:35:30;14.97;;;5.63;;
22030;SDS011;11179;52.106;21.024;2023-03-30T15:40:38;16.40;;;7.37;;
22030;SDS011;11179;52.106;21.024;2023-03-30T15:43:12;15.80;;;8.37;;
22030;SDS011;11179;52.106;21.024;2023-03-30T15:46:18;14.53;;;7.10;;
22030;SDS011;11179;52.106;21.024;2023-03-30T15:48:44;17.40;;;8.20;;
22030;SDS011;11179;52.106;21.024;2023-03-30T15:54:11;23.03;;;10.43;;
22030;SDS011;11179;52.106;21.024;2023-03-30T15:56:56;20.07;;;9.17;;
22030;SDS011;11179;52.106;21.024;2023-03-30T15:59:39;20.17;;;9.27;;
22030;SDS011;11179;52.106;21.024;2023-03-30T16:02:19;23.27;;;9.67;;
22030;SDS011;11179;52.106;21.024;2023-03-30T16:05:00;18.40;;;8.47;;
22030;SDS011;11179;52.106;21.024;2023-03-30T16:07:27;19.67;;;9.23;;
22030;SDS011;11179;52.106;21.024;2023-03-30T16:09:54;20.43;;;9.53;;
22030;SDS011;11179;52.106;21.024;2023-03-30T16:12:24;19.47;;;8.63;;
22030;SDS011;11179;52.106;21.024;2023-03-30T16:14:51;27.93;;;13.13;;
22030;SDS011;11179;52.106;21.024;2023-03-30T16:17:17;26.80;;;12.40;;
22030;SDS011;11179;52.106;21.024;2023-03-30T16:19:43;22.50;;;11.17;;
22030;SDS011;11179;52.106;21.024;2023-03-30T16:22:09;25.03;;;13.47;;
22030;SDS011;11179;52.106;21.024;2023-03-30T16:24:36;24.80;;;12.30;;
22030;SDS011;11179;52.106;21.024;2023-03-30T16:27:02;20.47;;;11.70;;
22030;SDS011;11179;52.106;21.024;2023-03-30T16:29:29;23.63;;;12.80;;
22030;SDS011;11179;52.106;21.024;2023-03-30T16:31:55;27.23;;;13.30;;
22030;SDS011;11179;52.106;21.024;2023-03-30T16:34:21;23.70;;;11.70;;
22030;SDS011;11179;52.106;21.024;2023-03-30T16:36:46;22.97;;;11.30;;
22030;SDS011;11179;52.106;21.024;2023-03-30T16:39:22;26.37;;;10.77;;
22030;SDS011;11179;52.106;21.024;2023-03-30T16:41:50;29.70;;;13.70;;
22030;SDS011;11179;52.106;21.024;2023-03-30T16:44:16;22.23;;;10.20;;
22030;SDS011;11179;52.106;21.024;2023-03-30T16:46:43;23.40;;;11.17;;
22030;SDS011;11179;52.106;21.024;2023-03-30T16:49:13;22.10;;;10.47;;
22030;SDS011;11179;52.106;21.024;2023-03-30T16:51:40;22.57;;;10.27;;